createdAt,value
2019-05-13T00:02:04.638Z,241.90
2019-05-13T00:04:33.886Z,199.93
2019-05-13T00:07:04.817Z,229.57
2019-05-13T00:09:34.120Z,153.53
2019-05-13T00:12:04.607Z,169.23
2019-05-13T00:14:34.443Z,138.93
2019-05-13T00:17:04.395Z,73.53
2019-05-13T00:19:33.919Z,95.40
2019-05-13T00:22:03.844Z,75.53
2019-05-13T00:24:33.976Z,102.77
2019-05-13T00:27:03.872Z,72.03
2019-05-13T00:29:34.038Z,72.30
2019-05-13T00:32:04.693Z,60.07
2019-05-13T00:34:34.142Z,105.10
2019-05-13T00:37:11.088Z,71.90
2019-05-13T00:39:33.920Z,74.13
2019-05-13T00:42:04.011Z,49.07
2019-05-13T00:44:33.952Z,42.20
2019-05-13T00:47:04.390Z,53.17
2019-05-13T00:49:34.488Z,27.53
2019-05-13T00:52:04.109Z,30.90
2019-05-13T00:54:34.271Z,40.90
2019-05-13T00:57:04.268Z,48.70
2019-05-13T00:59:33.968Z,31.53
2019-05-13T01:02:03.802Z,35.67
2019-05-13T01:04:33.888Z,22.97
2019-05-13T01:07:04.503Z,20.80
2019-05-13T01:09:34.243Z,41.23
2019-05-13T01:12:04.435Z,43.63
2019-05-13T01:14:34.336Z,29.93
2019-05-13T01:17:03.869Z,36.53
2019-05-13T01:19:34.273Z,73.47
2019-05-13T01:22:04.393Z,75.77
2019-05-13T01:24:33.936Z,53.67
2019-05-13T01:27:03.846Z,80.50
2019-05-13T01:29:34.379Z,59.90
2019-05-13T01:32:04.458Z,50.50
2019-05-13T01:34:34.050Z,50.57
2019-05-13T01:37:04.217Z,54.07
2019-05-13T01:39:34.902Z,61.37
2019-05-13T01:42:04.337Z,34.77
2019-05-13T01:44:33.721Z,24.00
2019-05-13T01:47:04.463Z,27.13
2019-05-13T01:49:33.908Z,33.47
2019-05-13T01:52:03.817Z,40.23
2019-05-13T01:54:33.972Z,38.70
2019-05-13T01:57:04.466Z,21.57
2019-05-13T01:59:34.674Z,16.53
2019-05-13T02:02:03.985Z,39.97
2019-05-13T02:04:33.584Z,25.23
2019-05-13T02:07:04.160Z,36.97
2019-05-13T02:09:33.985Z,27.07
2019-05-13T02:12:04.886Z,12.57
2019-05-13T02:14:34.208Z,16.47
2019-05-13T02:17:04.145Z,8.37
2019-05-13T02:19:33.675Z,10.80
2019-05-13T02:22:03.898Z,15.27
2019-05-13T02:24:34.113Z,8.87
2019-05-13T02:27:03.855Z,10.30
2019-05-13T02:29:34.376Z,13.90
2019-05-13T02:32:03.712Z,15.43
2019-05-13T02:34:32.732Z,15.47
2019-05-13T02:37:03.241Z,17.90
2019-05-13T02:39:33.048Z,7.63
2019-05-13T02:42:03.667Z,11.63
2019-05-13T02:44:33.622Z,16.30
2019-05-13T02:47:03.707Z,17.57
2019-05-13T02:49:32.983Z,11.10
2019-05-13T02:52:02.798Z,5.57
2019-05-13T02:54:34.054Z,14.20
2019-05-13T02:57:03.813Z,12.20
2019-05-13T02:59:33.748Z,6.90
2019-05-13T03:02:03.783Z,13.07
2019-05-13T03:04:32.945Z,8.87
2019-05-13T03:07:03.072Z,7.27
2019-05-13T03:09:32.724Z,6.77
2019-05-13T03:12:04.041Z,9.20
2019-05-13T03:14:32.628Z,14.07
2019-05-13T03:17:03.685Z,7.90
2019-05-13T03:19:33.315Z,8.23
2019-05-13T03:22:03.318Z,10.23
2019-05-13T03:24:33.151Z,9.27
2019-05-13T03:27:02.769Z,17.93
2019-05-13T03:29:32.947Z,8.27
2019-05-13T03:32:06.853Z,8.83
2019-05-13T03:34:35.897Z,12.13
2019-05-13T03:37:06.787Z,10.00
2019-05-13T03:39:35.108Z,7.57
2019-05-13T03:42:04.269Z,16.83
2019-05-13T03:44:33.266Z,11.50
2019-05-13T03:47:03.774Z,7.30
2019-05-13T03:49:34.477Z,19.57
2019-05-13T03:52:03.624Z,10.17
2019-05-13T03:54:33.057Z,8.33
2019-05-13T03:57:03.654Z,15.40
2019-05-13T03:59:33.740Z,7.83
2019-05-13T04:02:03.237Z,19.47
2019-05-13T04:04:32.697Z,11.90
2019-05-13T04:07:02.923Z,21.33
2019-05-13T04:09:36.536Z,44.70
2019-05-13T04:15:23.037Z,70.10
2019-05-13T04:17:53.099Z,292.13
2019-05-13T04:20:23.032Z,744.80
2019-05-13T04:22:52.917Z,1172.07
2019-05-13T04:25:23.448Z,1607.13
2019-05-13T04:27:53.081Z,1999.90
2019-05-13T04:30:22.773Z,1999.90
2019-05-13T04:32:53.380Z,1962.40
2019-05-13T04:35:23.873Z,1524.33
2019-05-13T04:37:53.167Z,1197.30
2019-05-13T04:40:23.479Z,854.37
2019-05-13T04:42:53.827Z,833.53
2019-05-13T04:45:24.198Z,864.23
2019-05-13T04:47:53.354Z,875.17
2019-05-13T04:50:22.954Z,889.43
2019-05-13T04:52:52.583Z,797.90
2019-05-13T04:55:23.115Z,806.00
2019-05-13T04:57:53.251Z,814.13
2019-05-13T05:00:24.159Z,856.73
2019-05-13T05:02:55.457Z,862.40
2019-05-13T05:05:26.318Z,870.83
2019-05-13T05:07:56.872Z,871.53
2019-05-13T05:10:37.314Z,847.57
2019-05-13T05:13:02.161Z,840.97
2019-05-13T05:15:32.451Z,833.97
2019-05-13T05:18:04.093Z,816.67
2019-05-13T05:20:34.688Z,823.47
2019-05-13T05:23:05.247Z,811.50
2019-05-13T05:25:35.852Z,843.57
2019-05-13T05:28:04.720Z,828.17
2019-05-13T05:30:35.303Z,838.07
2019-05-13T05:33:05.879Z,844.80
2019-05-13T05:35:36.473Z,840.83
2019-05-13T05:38:07.102Z,852.73
2019-05-13T05:40:37.441Z,828.08
2019-05-13T05:43:08.331Z,822.87
2019-05-13T05:45:37.537Z,860.55
2019-05-13T05:48:08.186Z,822.00
2019-05-13T05:50:37.228Z,843.37
2019-05-13T05:53:06.787Z,845.05
2019-05-13T05:55:36.667Z,837.72
2019-05-13T05:58:06.333Z,841.85
2019-05-13T06:00:37.227Z,792.65
2019-05-13T06:03:06.426Z,840.30
2019-05-13T06:05:35.876Z,834.35
2019-05-13T06:08:05.165Z,819.13
2019-05-13T06:10:46.417Z,842.55
2019-05-13T06:13:05.037Z,822.83
2019-05-13T06:15:34.311Z,790.35
2019-05-13T06:18:03.382Z,799.25
2019-05-13T06:20:32.686Z,793.85
2019-05-13T06:23:02.275Z,814.10
2019-05-13T06:25:33.598Z,796.50
2019-05-13T06:28:03.374Z,790.25
2019-05-13T06:30:32.671Z,802.25
2019-05-13T06:33:01.883Z,812.30
2019-05-13T06:35:32.309Z,814.78
2019-05-13T06:38:01.704Z,828.03
2019-05-13T06:40:31.861Z,799.02
2019-05-13T06:43:01.544Z,818.97
2019-05-13T06:45:31.615Z,833.68
2019-05-13T06:48:02.398Z,816.02
2019-05-13T06:50:32.328Z,806.10
2019-05-13T06:53:02.361Z,794.50
2019-05-13T06:55:32.570Z,826.73
2019-05-13T06:58:02.335Z,791.98
2019-05-13T07:00:34.760Z,819.55
2019-05-13T07:03:02.672Z,811.15
2019-05-13T07:05:31.914Z,777.60
2019-05-13T07:08:03.420Z,835.13
2019-05-13T07:10:32.452Z,825.95
2019-05-13T07:13:02.436Z,830.23
2019-05-13T07:15:31.641Z,793.17
2019-05-13T07:18:02.277Z,813.75
2019-05-13T07:20:32.327Z,770.85
2019-05-13T07:23:03.057Z,797.90
2019-05-13T07:25:32.774Z,753.20
2019-05-13T07:28:02.274Z,807.45
2019-05-13T07:30:33.062Z,795.85
2019-05-13T07:33:02.190Z,815.12
2019-05-13T07:35:37.529Z,832.73
2019-05-13T07:38:02.321Z,812.57
2019-05-13T07:40:32.183Z,784.70
2019-05-13T07:43:01.747Z,803.70
2019-05-13T07:45:56.582Z,793.63
2019-05-13T07:48:27.901Z,799.58
2019-05-13T07:51:00.173Z,857.38
2019-05-13T07:53:27.010Z,811.60
2019-05-13T07:55:56.041Z,827.48
2019-05-13T07:58:25.107Z,803.97
2019-05-13T08:00:54.201Z,791.80
2019-05-13T08:03:23.214Z,777.28
2019-05-13T08:05:52.254Z,796.37
2019-05-13T08:08:22.027Z,770.88
2019-05-13T08:10:51.980Z,821.23
2019-05-13T08:13:22.494Z,811.70
2019-05-13T08:15:54.281Z,832.67
2019-05-13T08:18:22.516Z,847.78
2019-05-13T08:20:52.450Z,845.75
2019-05-13T08:23:21.780Z,845.23
2019-05-13T08:25:51.452Z,864.57
2019-05-13T08:28:22.588Z,874.60
2019-05-13T08:30:51.796Z,869.13
2019-05-13T08:33:22.619Z,845.23
2019-05-13T08:35:56.628Z,892.30
2019-05-13T08:38:23.444Z,888.00
2019-05-13T08:40:52.519Z,866.80
2019-05-13T08:43:22.743Z,861.23
2019-05-13T08:45:55.464Z,876.00
2019-05-13T08:48:22.421Z,868.80
2019-05-13T08:50:52.180Z,892.17
2019-05-13T08:53:21.368Z,848.33
2019-05-13T08:55:51.760Z,844.60
2019-05-13T08:58:21.677Z,816.02
2019-05-13T09:00:52.788Z,833.53
2019-05-13T09:03:22.772Z,779.58
2019-05-13T09:05:52.428Z,779.92
2019-05-13T09:08:22.475Z,763.83
2019-05-13T09:10:53.196Z,817.02
2019-05-13T09:13:22.562Z,820.77
2019-05-13T09:15:51.921Z,767.65
2019-05-13T09:18:22.809Z,757.00
2019-05-13T09:20:52.240Z,748.35
2019-05-13T09:23:22.226Z,796.35
2019-05-13T09:25:52.118Z,771.50
2019-05-13T09:28:21.977Z,834.92
2019-05-13T09:30:53.011Z,800.77
2019-05-13T09:33:22.023Z,797.50
2019-05-13T09:35:53.658Z,867.62
2019-05-13T09:38:22.269Z,800.05
2019-05-13T09:40:53.213Z,800.05
2019-05-13T09:43:22.489Z,887.83
2019-05-13T09:45:52.474Z,777.75
2019-05-13T09:48:22.668Z,783.90
2019-05-13T09:50:51.984Z,885.70
2019-05-13T09:53:22.286Z,783.72
2019-05-13T09:55:52.387Z,829.12
2019-05-13T09:58:22.466Z,871.55
2019-05-13T10:00:52.925Z,762.35
2019-05-13T10:03:26.923Z,885.15
2019-05-13T10:05:52.965Z,794.25
2019-05-13T10:08:22.230Z,795.15
2019-05-13T10:10:52.797Z,738.60
2019-05-13T10:13:23.169Z,741.33
2019-05-13T10:15:52.578Z,774.60
2019-05-13T10:18:22.771Z,727.55
2019-05-13T10:20:57.925Z,773.42
2019-05-13T10:23:24.584Z,765.23
2019-05-13T10:25:55.319Z,738.42
2019-05-13T10:28:25.540Z,707.58
2019-05-13T10:31:13.986Z,705.05
2019-05-13T10:33:43.018Z,758.90
2019-05-13T10:36:12.484Z,755.90
2019-05-13T10:38:43.264Z,771.15
2019-05-13T10:41:12.389Z,720.10
2019-05-13T10:43:44.176Z,810.15
2019-05-13T10:46:12.891Z,973.83
2019-05-13T10:48:42.220Z,922.80
2019-05-13T10:51:13.100Z,838.48
2019-05-13T10:53:42.548Z,704.08
2019-05-13T10:56:12.031Z,670.05
2019-05-13T10:58:42.557Z,808.47
2019-05-13T11:01:12.034Z,782.73
2019-05-13T11:03:42.754Z,689.63
2019-05-13T11:06:12.168Z,739.75
2019-05-13T11:08:42.215Z,762.80
2019-05-13T11:11:12.961Z,804.10
2019-05-13T11:13:56.446Z,709.80
2019-05-13T11:16:13.131Z,799.08
2019-05-13T11:18:42.357Z,722.40
2019-05-13T11:21:13.063Z,748.78
2019-05-13T11:23:42.229Z,777.02
2019-05-13T11:26:12.976Z,762.88
2019-05-13T11:28:42.875Z,865.17
2019-05-13T11:31:12.219Z,763.83
2019-05-13T11:33:42.515Z,773.13
2019-05-13T11:36:12.905Z,763.25
2019-05-13T11:38:43.317Z,685.67
2019-05-13T11:41:12.654Z,761.95
2019-05-13T11:43:41.921Z,783.70
2019-05-13T11:46:10.960Z,779.80
2019-05-13T11:48:42.620Z,780.35
2019-05-13T11:51:13.103Z,772.37
2019-05-13T11:53:41.804Z,787.17
2019-05-13T11:56:11.536Z,743.80
2019-05-13T11:58:43.096Z,778.88
2019-05-13T12:01:11.980Z,696.15
2019-05-13T12:03:43.519Z,778.00
2019-05-13T12:06:11.834Z,838.60
2019-05-13T12:08:50.189Z,753.92
2019-05-13T12:11:13.997Z,774.00
2019-05-13T12:13:42.707Z,760.92
2019-05-13T12:16:12.832Z,690.90
2019-05-13T12:18:43.881Z,746.53
2019-05-13T12:21:13.068Z,817.42
2019-05-13T12:23:42.897Z,713.95
2019-05-13T12:26:13.053Z,736.15
2019-05-13T12:28:42.270Z,819.37
2019-05-13T12:31:12.523Z,738.35
2019-05-13T12:33:44.113Z,733.10
2019-05-13T12:36:17.932Z,746.98
2019-05-13T12:38:44.240Z,704.67
2019-05-13T12:41:13.623Z,896.45
2019-05-13T12:43:42.781Z,797.17
2019-05-13T12:46:12.589Z,871.52
2019-05-13T12:48:41.716Z,742.03
2019-05-13T12:51:13.316Z,713.83
2019-05-13T12:53:43.452Z,820.97
2019-05-13T12:56:12.988Z,746.42
2019-05-13T12:58:42.719Z,754.75
2019-05-13T13:01:12.863Z,749.20
2019-05-13T13:03:42.541Z,758.53
2019-05-13T13:06:26.994Z,965.30
2019-05-13T13:08:48.697Z,722.40
2019-05-13T13:11:14.249Z,736.67
2019-05-13T13:13:58.000Z,949.45
2019-05-13T13:16:14.212Z,740.02
2019-05-13T13:18:43.725Z,840.53
2019-05-13T13:21:14.384Z,874.32
2019-05-13T13:23:43.749Z,792.55
2019-05-13T13:26:15.823Z,809.07
2019-05-13T13:28:43.789Z,750.83
2019-05-13T13:31:13.236Z,750.72
2019-05-13T13:33:44.500Z,778.73
2019-05-13T13:36:15.444Z,731.40
2019-05-13T13:38:44.345Z,841.42
2019-05-13T13:41:21.821Z,808.83
2019-05-13T13:43:44.013Z,729.12
2019-05-13T13:46:32.313Z,750.25
2019-05-13T13:48:44.286Z,730.58
2019-05-13T13:51:14.556Z,734.45
2019-05-13T13:53:44.732Z,732.60
2019-05-13T13:56:14.984Z,830.78
2019-05-13T13:58:44.334Z,844.75
2019-05-13T14:01:19.446Z,710.80
2019-05-13T14:03:45.990Z,747.80
2019-05-13T14:07:13.139Z,748.92
2019-05-13T14:08:46.021Z,733.95
2019-05-13T14:11:15.069Z,730.50
2019-05-13T14:13:44.113Z,777.30
2019-05-13T14:16:24.590Z,751.13
2019-05-13T14:18:44.131Z,773.45
2019-05-13T14:21:14.263Z,725.02
2019-05-13T14:23:43.683Z,807.67
2019-05-13T14:26:12.736Z,806.00
2019-05-13T14:28:42.125Z,759.95
2019-05-13T14:31:13.257Z,761.35
2019-05-13T14:33:42.487Z,748.67
2019-05-13T14:36:12.349Z,775.33
2019-05-13T14:38:41.568Z,735.50
2019-05-13T14:41:12.327Z,735.35
2019-05-13T14:43:41.726Z,969.73
2019-05-13T14:46:12.627Z,741.05
2019-05-13T14:48:43.343Z,898.78
2019-05-13T14:51:12.347Z,731.92
2019-05-13T14:53:41.708Z,769.52
2019-05-13T14:56:14.115Z,908.15
2019-05-13T14:58:41.934Z,735.20
2019-05-13T15:01:17.742Z,792.53
2019-05-13T15:03:41.739Z,737.25
2019-05-13T15:06:11.936Z,723.47
2019-05-13T15:08:42.212Z,740.12
2019-05-13T15:11:12.646Z,803.55
2019-05-13T15:13:42.476Z,781.52
2019-05-13T15:16:11.629Z,790.73
2019-05-13T15:18:41.623Z,758.85
2019-05-13T15:21:12.117Z,775.67
2019-05-13T15:23:42.290Z,877.45
2019-05-13T15:26:11.800Z,760.35
2019-05-13T15:28:42.119Z,759.45
2019-05-13T15:31:11.650Z,761.08
2019-05-13T15:33:41.877Z,729.20
2019-05-13T15:36:11.937Z,797.17
2019-05-13T15:38:41.489Z,742.75
2019-05-13T15:41:15.285Z,744.02
2019-05-13T15:43:42.171Z,759.25
2019-05-13T15:46:12.540Z,838.35
2019-05-13T15:48:43.326Z,739.10
2019-05-13T15:51:12.358Z,747.92
2019-05-13T15:53:43.762Z,770.80
2019-05-13T15:56:12.651Z,724.85
2019-05-13T15:58:44.486Z,737.25
2019-05-13T16:01:12.647Z,760.23
2019-05-13T16:03:41.741Z,876.33
2019-05-13T16:06:11.001Z,766.12
2019-05-13T16:08:43.136Z,879.87
2019-05-13T16:11:12.562Z,747.92
2019-05-13T16:13:41.364Z,725.58
2019-05-13T16:16:12.180Z,831.47
2019-05-13T16:18:41.976Z,769.28
2019-05-13T16:21:12.055Z,776.33
2019-05-13T16:23:42.907Z,751.60
2019-05-13T16:26:12.354Z,779.77
2019-05-13T16:28:41.927Z,770.63
2019-05-13T16:31:11.946Z,819.85
2019-05-13T16:33:41.701Z,743.48
2019-05-13T16:36:12.604Z,784.00
2019-05-13T16:39:07.039Z,774.85
2019-05-13T16:41:36.214Z,818.37
2019-05-13T16:44:05.706Z,824.83
2019-05-13T16:46:34.754Z,774.07
2019-05-13T16:49:03.755Z,795.87
2019-05-13T16:51:32.839Z,835.30
2019-05-13T16:54:01.875Z,800.90
2019-05-13T16:56:33.372Z,766.17
2019-05-13T16:59:01.764Z,833.83
2019-05-13T17:01:30.903Z,810.77
2019-05-13T17:04:01.977Z,840.27
2019-05-13T17:06:32.154Z,861.57
2019-05-13T17:09:01.999Z,824.13
2019-05-13T17:11:32.880Z,876.03
2019-05-13T17:14:03.104Z,772.27
2019-05-13T17:16:32.561Z,766.40
2019-05-13T17:19:01.679Z,853.20
2019-05-13T17:21:31.642Z,836.43
2019-05-13T17:24:01.620Z,770.77
2019-05-13T17:26:32.654Z,852.73
2019-05-13T17:29:01.550Z,769.83
2019-05-13T17:31:32.540Z,786.83
2019-05-13T17:34:01.600Z,733.23
2019-05-13T17:36:32.528Z,847.90
2019-05-13T17:39:01.893Z,824.67
2019-05-13T17:41:32.153Z,781.67
2019-05-13T17:44:02.491Z,810.07
2019-05-13T17:46:32.767Z,832.97
2019-05-13T17:49:01.767Z,785.53
2019-05-13T17:51:30.834Z,873.90
2019-05-13T17:54:01.444Z,756.27
2019-05-13T17:56:32.302Z,762.37
2019-05-13T17:59:01.439Z,822.30
2019-05-13T18:01:31.704Z,755.70
2019-05-13T18:04:02.403Z,828.17
2019-05-13T18:06:31.662Z,797.13
2019-05-13T18:09:01.180Z,758.90
2019-05-13T18:11:31.353Z,926.47
2019-05-13T18:14:01.306Z,753.70
2019-05-13T18:16:32.389Z,734.50
2019-05-13T18:19:01.356Z,773.30
2019-05-13T18:21:32.006Z,763.73
2019-05-13T18:24:01.467Z,750.00
2019-05-13T18:26:31.989Z,757.73
2019-05-13T18:29:01.921Z,773.43
2019-05-13T18:31:31.112Z,801.53
2019-05-13T18:34:01.545Z,775.47
2019-05-13T18:36:31.774Z,791.27
2019-05-13T18:39:01.596Z,745.23
2019-05-13T18:41:31.844Z,756.93
2019-05-13T18:44:01.298Z,783.77
2019-05-13T18:46:32.278Z,728.27
2019-05-13T18:49:02.161Z,749.87
2019-05-13T18:51:31.681Z,781.47
2019-05-13T18:54:01.301Z,790.33
2019-05-13T18:56:32.248Z,775.13
2019-05-13T18:59:02.264Z,776.00
2019-05-13T19:01:32.051Z,760.70
2019-05-13T19:04:01.949Z,775.17
2019-05-13T19:06:31.668Z,753.93
2019-05-13T19:09:02.199Z,766.57
2019-05-13T19:11:32.493Z,797.43
2019-05-13T19:14:01.710Z,788.00
2019-05-13T19:16:31.898Z,776.87
2019-05-13T19:19:11.786Z,752.30
2019-05-13T19:21:31.857Z,775.83
2019-05-13T19:24:02.031Z,758.03
2019-05-13T19:26:31.360Z,796.20
2019-05-13T19:29:02.076Z,865.80
2019-05-13T19:31:32.482Z,786.63
2019-05-13T19:34:01.654Z,796.23
2019-05-13T19:36:31.769Z,798.00
2019-05-13T19:39:01.803Z,821.47
2019-05-13T19:41:32.247Z,767.03
2019-05-13T19:44:01.956Z,812.10
2019-05-13T19:46:31.533Z,808.47
2019-05-13T19:49:01.554Z,819.77
2019-05-13T19:51:32.231Z,814.30
2019-05-13T19:54:01.495Z,796.20
2019-05-13T19:56:31.919Z,803.97
2019-05-13T19:59:01.616Z,821.40
2019-05-13T20:01:32.235Z,840.03
2019-05-13T20:04:02.410Z,821.37
2019-05-13T20:06:31.965Z,822.80
2019-05-13T20:09:01.629Z,942.37
2019-05-13T20:11:32.018Z,816.73
2019-05-13T20:14:01.438Z,821.73
2019-05-13T20:16:32.125Z,795.00
2019-05-13T20:19:01.429Z,793.00
2019-05-13T20:21:31.903Z,791.90
2019-05-13T20:24:01.247Z,810.57
2019-05-13T20:26:32.146Z,816.03
2019-05-13T20:29:01.653Z,829.03
2019-05-13T20:31:32.212Z,805.23
2019-05-13T20:34:01.720Z,812.00
2019-05-13T20:36:31.556Z,883.57
2019-05-13T20:39:02.093Z,772.57
2019-05-13T20:41:32.416Z,757.67
2019-05-13T20:44:01.601Z,737.23
2019-05-13T20:46:32.698Z,777.83
2019-05-13T20:49:01.868Z,767.57
2019-05-13T20:51:31.869Z,766.07
2019-05-13T20:54:02.398Z,744.93
2019-05-13T20:56:31.830Z,765.40
2019-05-13T20:59:26.424Z,775.70
2019-05-13T21:01:55.529Z,804.07
2019-05-13T21:04:24.586Z,783.03
2019-05-13T21:06:53.713Z,787.83
2019-05-13T21:09:22.842Z,795.87
2019-05-13T21:11:51.972Z,789.17
2019-05-13T21:14:21.553Z,868.47
2019-05-13T21:16:53.436Z,884.17
2019-05-13T21:19:22.038Z,882.70
2019-05-13T21:21:51.359Z,941.73
2019-05-13T21:24:21.349Z,962.23
2019-05-13T21:26:51.235Z,950.00
2019-05-13T21:29:21.659Z,1022.03
2019-05-13T21:31:52.862Z,1095.73
2019-05-13T21:34:21.517Z,1048.73
2019-05-13T21:36:51.805Z,1072.97
2019-05-13T21:39:21.509Z,983.83
2019-05-13T21:41:51.962Z,1008.17
2019-05-13T21:44:21.015Z,1101.03
2019-05-13T21:46:51.574Z,1051.93
2019-05-13T21:49:21.365Z,1173.50
2019-05-13T21:51:52.152Z,1477.40
2019-05-13T21:54:21.252Z,1340.03
2019-05-13T21:56:51.596Z,1149.20
2019-05-13T21:59:23.027Z,1113.30
2019-05-13T22:01:52.246Z,1093.27
2019-05-13T22:04:21.580Z,1227.40
2019-05-13T22:06:50.631Z,1069.77
2019-05-13T22:09:21.971Z,1037.97
2019-05-13T22:11:51.156Z,1230.43
2019-05-13T22:14:20.312Z,1352.20
2019-05-13T22:16:51.786Z,1165.40
2019-05-13T22:19:23.737Z,1409.60
2019-05-13T22:21:52.850Z,1423.53
2019-05-13T22:24:22.180Z,1377.40
2019-05-13T22:26:51.393Z,1466.20
2019-05-13T22:29:22.959Z,1368.70
2019-05-13T22:31:51.223Z,1330.83
2019-05-13T22:34:21.198Z,1416.60
2019-05-13T22:36:51.742Z,1389.20
2019-05-13T22:39:21.997Z,1472.40
2019-05-13T22:41:52.373Z,1682.70
2019-05-13T22:44:21.809Z,1472.10
2019-05-13T22:46:51.756Z,1570.40
2019-05-13T22:49:22.106Z,1575.80
2019-05-13T22:51:51.635Z,1685.97
2019-05-13T22:54:21.191Z,1581.93
2019-05-13T22:56:52.227Z,1659.00
2019-05-13T22:59:21.572Z,1787.47
2019-05-13T23:01:52.400Z,1722.07
2019-05-13T23:04:21.513Z,1735.17
2019-05-13T23:06:51.961Z,1667.13
2019-05-13T23:09:21.613Z,1803.57
2019-05-13T23:11:51.119Z,1831.10
2019-05-13T23:14:21.985Z,1750.63
2019-05-13T23:16:50.862Z,1891.40
2019-05-13T23:19:21.702Z,1910.07
2019-05-13T23:22:01.637Z,1992.43
2019-05-13T23:24:38.329Z,1920.20
2019-05-13T23:27:07.356Z,1979.40
2019-05-13T23:29:36.833Z,1999.90
2019-05-13T23:32:06.994Z,1977.10
2019-05-13T23:34:36.125Z,1994.50
2019-05-13T23:37:05.181Z,1952.03
2019-05-13T23:39:34.248Z,1928.80
2019-05-13T23:42:03.336Z,1766.90
2019-05-13T23:44:32.392Z,1707.27
2019-05-13T23:47:01.413Z,1596.47
2019-05-13T23:49:31.634Z,1597.10
2019-05-13T23:52:02.517Z,1911.77
2019-05-13T23:54:31.675Z,1879.23
2019-05-13T23:57:01.264Z,1839.23
2019-05-13T23:59:31.248Z,1826.20
